Terminal Aerodrome Forecast
Issued by NWS

Home | Current Version | Previous Version | Text Only | Print | Product List | Glossary Off
Versions: 1 2 3 4 5 6 7 8 9 10 11 12 13 14

000
FTUS43 KBIS 240532
TAFDIK
TAF
KDIK 240532Z 2406/2506 16015KT P6SM SCT150 SCT250
     FM241900 18015KT P6SM FEW090 FEW250
     FM242300 17009KT P6SM VCTS BKN080CB BKN100
     FM250200 02009KT P6SM SCT070 SCT150=

USA.gov is the U.S. government's official web portal to all federal, state and local government web resources and services.